This is the latest recevied weather packets stored in our database for station/object KA3RQR. If no packets are shown the sender has not sent any weather packets the latest 10 day(s).
| Time | Temp. | Humidity | Pressure | Rain* | Wind** | Luminosity | Snow |
|---|---|---|---|---|---|---|---|
| 1777762552 | 12.78° C | 47% | 1012.1 hPa | 0 mm | - | 24 W/m² | - |
| 1777762249 | 12.78° C | 47% | 1012.2 hPa | 0 mm | - | 26 W/m² | - |
| 1777761946 | 12.78° C | 47% | 1012.1 hPa | 0 mm | - | 28 W/m² | - |
| 1777761643 | 12.78° C | 48% | 1012.1 hPa | 0 mm | - | 33 W/m² | - |
| 1777761340 | 12.78° C | 49% | 1012.1 hPa | 0 mm | - | 39 W/m² | - |
| 1777761039 | 12.78° C | 47% | 1012.2 hPa | 0 mm | - | 39 W/m² | - |
| 1777760736 | 13.33° C | 47% | 1012.3 hPa | 0 mm | - | 41 W/m² | - |
| 1777760432 | 13.33° C | 47% | 1012.2 hPa | 0 mm | - | 50 W/m² | - |
| 1777760127 | 13.33° C | 47% | 1012 hPa | 0 mm | - | 51 W/m² | - |
| 1777759825 | 13.33° C | 48% | 1012.1 hPa | 0 mm | - | 58 W/m² | - |
| 1777759521 | 13.89° C | 46% | 1012.1 hPa | 0 mm | - | 67 W/m² | - |
| 1777759218 | 13.89° C | 46% | 1012.3 hPa | 0 mm | - | 81 W/m² | - |
| 1777758915 | 13.89° C | 49% | 1012.1 hPa | 0 mm | - | 86 W/m² | - |
| 1777758612 | 13.89° C | 46% | 1012.1 hPa | 0 mm | - | 113 W/m² | - |
| 1777758309 | 13.89° C | 45% | 1012.2 hPa | 0 mm | - | 118 W/m² | - |
| 1777758006 | 13.89° C | 45% | 1012.2 hPa | 0 mm | - | 124 W/m² | - |
| 1777757703 | 13.89° C | 44% | 1012.1 hPa | 0 mm | - | 144 W/m² | - |
| 1777757401 | 14.44° C | 44% | 1011.9 hPa | 0 mm | - | 90 W/m² | - |
| 1777757099 | 14.44° C | 46% | 1012 hPa | 0 mm | - | 148 W/m² | - |
| 1777756796 | 15° C | 43% | 1012 hPa | 0 mm | - | 108 W/m² | - |
| 1777756492 | 15° C | 43% | 1012.2 hPa | 0 mm | - | 149 W/m² | - |
| 1777756190 | 15.56° C | 43% | 1012.2 hPa | 0 mm | - | 119 W/m² | - |
| 1777755886 | 14.44° C | 46% | 1012.1 hPa | 0 mm | - | 428 W/m² | - |
| 1777755583 | 14.44° C | 41% | 1012 hPa | 0 mm | - | 95 W/m² | - |
| 1777755279 | 14.44° C | 41% | 1012.1 hPa | 0 mm | - | 234 W/m² | - |
* Rain latest hour (hover to see other rain measurements)
** Current wind speed in m/s (hover to see current wind gust speed)